Time;durP1;ratioP1;P1;durP2;ratioP2;P2;SDS_P1;SDS_P2;PMS_P1;PMS_P2;Temp;Humidity;BMP_temperature;BMP_pressure;BME280_temperature;BME280_humidity;BME280_pressure;Samples;Min_cycle;Max_cycle;Signal;HPM_P1;HPM_P2
2023/05/03 00:03:52;;;;;;;0.60;0.60;;;;;;;;;;10259285;28;20250;-78
2023/05/03 00:08:53;;;;;;;0.70;0.70;;;;;;;;;;10247089;28;20218;-76
2023/05/03 00:13:54;;;;;;;1.35;0.80;;;;;;;;;;10252577;28;20288;-79
2023/05/03 00:18:56;;;;;;;1.08;0.50;;;;;;;;;;10249079;28;20252;-80
2023/05/03 00:23:57;;;;;;;0.70;0.70;;;;;;;;;;10262040;28;20725;-78
2023/05/03 00:28:59;;;;;;;0.65;0.50;;;;;;;;;;10246284;28;20224;-77
2023/05/03 00:34:00;;;;;;;0.60;0.60;;;;;;;;;;10249451;28;20231;-80
2023/05/03 00:39:02;;;;;;;1.10;0.70;;;;;;;;;;10261232;28;20217;-77
2023/05/03 00:44:03;;;;;;;2.15;1.02;;;;;;;;;;10246233;28;20221;-78
2023/05/03 00:49:04;;;;;;;0.60;0.60;;;;;;;;;;10251461;28;20217;-78
2023/05/03 00:54:05;;;;;;;1.65;0.80;;;;;;;;;;10261064;28;20292;-76
2023/05/03 00:59:07;;;;;;;1.02;0.40;;;;;;;;;;10262714;28;20712;-75
2023/05/03 01:04:09;;;;;;;1.85;0.47;;;;;;;;;;10245183;28;20248;-75
2023/05/03 01:09:19;;;;;;;1.33;0.70;;;;;;;;;;10248637;28;20605;-77
2023/05/03 01:14:20;;;;;;;0.75;0.70;;;;;;;;;;10259998;28;20217;-77
2023/05/03 01:19:36;;;;;;;0.77;0.77;;;;;;;;;;10251779;28;20217;-74
2023/05/03 01:24:40;;;;;;;2.53;0.65;;;;;;;;;;10266606;28;20315;-75
2023/05/03 01:29:42;;;;;;;1.63;0.90;;;;;;;;;;10273416;28;20791;-77
2023/05/03 01:34:51;;;;;;;1.48;0.70;;;;;;;;;;10271932;28;20365;-76
2023/05/03 01:40:01;;;;;;;3.67;0.68;;;;;;;;;;10256481;28;20307;-76
2023/05/03 01:45:02;;;;;;;0.65;0.52;;;;;;;;;;10270120;28;20715;-76
2023/05/03 01:50:03;;;;;;;0.43;0.43;;;;;;;;;;10269606;28;20221;-76
2023/05/03 01:55:05;;;;;;;6.55;0.70;;;;;;;;;;10272076;28;20225;-78
2023/05/03 02:00:06;;;;;;;0.60;0.60;;;;;;;;;;10257115;28;20258;-76
2023/05/03 02:05:13;;;;;;;1.85;0.60;;;;;;;;;;10251882;28;20210;-77
2023/05/03 02:10:15;;;;;;;1.83;0.70;;;;;;;;;;10268901;28;20213;-77
2023/05/03 02:15:18;;;;;;;4.38;0.60;;;;;;;;;;10257101;28;20299;-77
2023/05/03 02:20:20;;;;;;;0.60;0.60;;;;;;;;;;10267486;28;20201;-77
2023/05/03 02:25:21;;;;;;;1.90;0.68;;;;;;;;;;10259657;28;20300;-78
2023/05/03 02:30:22;;;;;;;5.00;0.80;;;;;;;;;;10256810;28;20250;-75
2023/05/03 02:35:23;;;;;;;0.57;0.57;;;;;;;;;;10251834;28;20217;-77
2023/05/03 02:40:24;;;;;;;3.97;0.55;;;;;;;;;;10256964;28;20221;-77
2023/05/03 02:45:26;;;;;;;2.20;0.50;;;;;;;;;;10242592;28;20798;-76
2023/05/03 02:50:27;;;;;;;3.50;0.60;;;;;;;;;;10252395;28;20221;-77
2023/05/03 02:55:28;;;;;;;4.05;0.80;;;;;;;;;;10269252;28;20763;-76
2023/05/03 03:00:29;;;;;;;3.13;0.65;;;;;;;;;;10250047;28;20797;-77
2023/05/03 03:05:30;;;;;;;1.08;0.70;;;;;;;;;;10236473;28;20280;-77
2023/05/03 03:10:31;;;;;;;0.85;0.73;;;;;;;;;;10234610;28;20232;-77
2023/05/03 03:15:33;;;;;;;2.83;0.80;;;;;;;;;;10268456;28;20224;-78
2023/05/03 03:20:34;;;;;;;0.82;0.82;;;;;;;;;;10268037;28;20234;-76
2023/05/03 03:25:37;;;;;;;2.75;0.63;;;;;;;;;;10266601;28;20218;-76
2023/05/03 03:30:38;;;;;;;0.60;0.60;;;;;;;;;;10266716;28;20330;-77
2023/05/03 03:35:50;;;;;;;1.35;0.70;;;;;;;;;;10253397;28;20316;-76
2023/05/03 03:40:53;;;;;;;2.50;0.60;;;;;;;;;;10263504;28;20214;-77
2023/05/03 03:45:54;;;;;;;0.57;0.57;;;;;;;;;;10230806;28;20232;-77
2023/05/03 03:50:55;;;;;;;4.93;1.00;;;;;;;;;;10266648;28;20220;-75
2023/05/03 03:56:01;;;;;;;2.08;0.70;;;;;;;;;;10255960;28;20296;-76
2023/05/03 04:01:05;;;;;;;5.30;0.90;;;;;;;;;;10228370;28;22854;-76
2023/05/03 04:06:06;;;;;;;7.20;0.77;;;;;;;;;;10245607;28;20797;-76
2023/05/03 04:11:11;;;;;;;4.78;0.65;;;;;;;;;;10263562;28;20304;-77
2023/05/03 04:16:16;;;;;;;3.92;1.10;;;;;;;;;;10232221;28;20226;-76
2023/05/03 04:21:18;;;;;;;0.70;0.70;;;;;;;;;;10266064;28;20224;-77
2023/05/03 04:26:21;;;;;;;1.30;0.65;;;;;;;;;;10245236;28;20225;-76
2023/05/03 04:31:23;;;;;;;4.18;1.15;;;;;;;;;;10257522;28;20229;-77
2023/05/03 04:36:28;;;;;;;0.88;0.88;;;;;;;;;;10245982;28;20236;-76
2023/05/03 04:41:30;;;;;;;1.25;1.13;;;;;;;;;;10257589;28;20221;-76
2023/05/03 04:46:32;;;;;;;0.98;0.95;;;;;;;;;;10261981;28;20225;-75
2023/05/03 04:51:33;;;;;;;2.28;1.17;;;;;;;;;;10262587;28;20281;-75
2023/05/03 04:56:34;;;;;;;3.90;1.10;;;;;;;;;;10245407;28;20221;-76
2023/05/03 05:01:44;;;;;;;1.85;0.73;;;;;;;;;;10261480;28;20808;-76
2023/05/03 05:06:45;;;;;;;1.40;1.33;;;;;;;;;;10248578;28;20733;-77
2023/05/03 05:11:52;;;;;;;1.00;1.00;;;;;;;;;;10253367;28;20365;-78
2023/05/03 05:16:54;;;;;;;1.30;1.30;;;;;;;;;;10236986;28;20706;-78
2023/05/03 05:21:56;;;;;;;7.00;1.48;;;;;;;;;;10267117;28;20301;-77
2023/05/03 05:27:01;;;;;;;3.10;1.25;;;;;;;;;;10263622;28;20607;-76
2023/05/03 05:32:04;;;;;;;1.42;1.33;;;;;;;;;;10268644;28;20229;-78
2023/05/03 05:37:06;;;;;;;2.17;1.30;;;;;;;;;;10269706;28;20245;-76
2023/05/03 05:42:08;;;;;;;1.35;1.25;;;;;;;;;;10251470;28;20279;-77
2023/05/03 05:47:10;;;;;;;2.38;1.70;;;;;;;;;;10260086;28;20762;-77
2023/05/03 05:52:11;;;;;;;1.15;1.13;;;;;;;;;;10269628;28;20218;-76
2023/05/03 05:57:13;;;;;;;1.30;1.20;;;;;;;;;;10268259;28;20706;-76
2023/05/03 06:02:15;;;;;;;3.47;1.60;;;;;;;;;;10237514;28;20228;-76
2023/05/03 06:07:18;;;;;;;7.13;1.85;;;;;;;;;;10273930;28;20373;-76
2023/05/03 06:12:20;;;;;;;1.17;1.10;;;;;;;;;;10259680;28;20210;-78
2023/05/03 06:17:22;;;;;;;2.08;1.42;;;;;;;;;;10271301;28;20229;-78
2023/05/03 06:22:24;;;;;;;3.85;1.05;;;;;;;;;;10278094;28;20272;-76
2023/05/03 06:27:25;;;;;;;2.05;1.10;;;;;;;;;;10257331;28;20225;-76
2023/05/03 06:32:27;;;;;;;1.40;1.20;;;;;;;;;;10267277;28;20282;-76
2023/05/03 06:37:28;;;;;;;0.65;0.65;;;;;;;;;;10260114;28;21104;-77
2023/05/03 06:42:30;;;;;;;1.08;0.98;;;;;;;;;;10275110;28;20214;-77
2023/05/03 06:47:43;;;;;;;1.38;0.98;;;;;;;;;;10279966;28;20595;-80
2023/05/03 06:52:45;;;;;;;0.82;0.82;;;;;;;;;;10245886;28;20225;-78
2023/05/03 06:57:51;;;;;;;6.32;0.90;;;;;;;;;;10261672;28;20228;-79
2023/05/03 07:02:52;;;;;;;3.08;0.88;;;;;;;;;;10258308;28;20217;-78
2023/05/03 07:07:53;;;;;;;5.57;0.70;;;;;;;;;;10255188;28;20209;-79
2023/05/03 07:12:54;;;;;;;1.25;0.70;;;;;;;;;;10261263;28;20599;-79
2023/05/03 07:17:55;;;;;;;2.72;0.50;;;;;;;;;;10246242;28;20220;-79
2023/05/03 07:22:57;;;;;;;1.75;0.60;;;;;;;;;;10251329;28;20244;-80
2023/05/03 07:27:58;;;;;;;1.55;0.50;;;;;;;;;;10253107;28;20213;-78
2023/05/03 07:32:59;;;;;;;7.03;0.95;;;;;;;;;;10250007;28;20315;-77
2023/05/03 07:38:00;;;;;;;3.95;0.70;;;;;;;;;;10262338;28;20325;-79
2023/05/03 07:43:02;;;;;;;0.90;0.50;;;;;;;;;;10251744;28;20321;-77
2023/05/03 07:48:06;;;;;;;0.93;0.77;;;;;;;;;;10264924;28;20237;-79
2023/05/03 07:53:07;;;;;;;1.58;0.70;;;;;;;;;;10246835;28;20765;-80
2023/05/03 07:58:08;;;;;;;0.52;0.52;;;;;;;;;;10253297;28;20221;-80
2023/05/03 08:03:09;;;;;;;4.15;0.52;;;;;;;;;;10245498;28;20313;-80
2023/05/03 08:08:11;;;;;;;1.40;0.47;;;;;;;;;;10243547;28;20688;-79
2023/05/03 08:13:12;;;;;;;3.88;0.55;;;;;;;;;;10258509;28;20222;-80
2023/05/03 08:18:13;;;;;;;0.98;0.60;;;;;;;;;;10252734;28;20946;-79
2023/05/03 08:23:15;;;;;;;0.70;0.70;;;;;;;;;;10252556;28;20229;-80
2023/05/03 08:28:16;;;;;;;1.48;0.80;;;;;;;;;;10265435;28;20284;-79
2023/05/03 08:33:17;;;;;;;1.23;0.50;;;;;;;;;;10244891;28;20225;-80
2023/05/03 08:38:18;;;;;;;2.75;0.50;;;;;;;;;;10260015;28;20213;-79
2023/05/03 08:43:20;;;;;;;4.93;0.70;;;;;;;;;;10242117;28;20213;-78
2023/05/03 08:48:22;;;;;;;1.30;0.50;;;;;;;;;;10242935;28;20233;-81
2023/05/03 08:53:23;;;;;;;2.28;0.43;;;;;;;;;;10244591;28;20308;-79
2023/05/03 08:58:24;;;;;;;3.78;0.70;;;;;;;;;;10242571;28;20218;-79
2023/05/03 09:03:26;;;;;;;3.70;0.50;;;;;;;;;;10248409;28;20933;-79
2023/05/03 09:08:27;;;;;;;3.13;0.60;;;;;;;;;;10245781;28;20206;-77
2023/05/03 09:13:32;;;;;;;1.85;0.60;;;;;;;;;;10267424;28;20692;-82
2023/05/03 09:18:33;;;;;;;0.88;0.63;;;;;;;;;;10216170;28;20226;-80
2023/05/03 09:23:34;;;;;;;2.08;0.47;;;;;;;;;;10265186;28;20218;-79
2023/05/03 09:28:42;;;;;;;3.42;0.60;;;;;;;;;;10267847;28;20798;-78
2023/05/03 09:33:43;;;;;;;1.77;0.50;;;;;;;;;;10258602;28;21021;-80
2023/05/03 09:38:44;;;;;;;0.50;0.50;;;;;;;;;;10260632;28;20224;-78
2023/05/03 09:43:49;;;;;;;0.68;0.63;;;;;;;;;;10256631;28;20676;-77
2023/05/03 09:48:53;;;;;;;2.28;0.70;;;;;;;;;;10253516;28;20275;-78
2023/05/03 09:53:55;;;;;;;0.68;0.60;;;;;;;;;;10255682;28;20414;-79
2023/05/03 09:58:57;;;;;;;1.85;0.50;;;;;;;;;;10269260;28;20659;-79
2023/05/03 10:04:00;;;;;;;1.63;0.55;;;;;;;;;;10255468;28;20218;-75
2023/05/03 10:09:04;;;;;;;2.17;0.50;;;;;;;;;;10238794;28;20236;-76
2023/05/03 10:14:06;;;;;;;4.40;0.90;;;;;;;;;;10254175;28;20304;-79
2023/05/03 10:19:11;;;;;;;1.17;0.55;;;;;;;;;;10270974;28;20316;-83
2023/05/03 10:24:13;;;;;;;1.45;0.43;;;;;;;;;;10256028;28;20804;-77
2023/05/03 10:29:44;;;;;;;0.70;0.55;;;;;;;;;;10268583;28;20234;-80
2023/05/03 10:34:45;;;;;;;0.93;0.70;;;;;;;;;;10224367;28;20309;-79
2023/05/03 10:39:46;;;;;;;2.03;0.93;;;;;;;;;;10260680;28;20221;-78
2023/05/03 10:44:52;;;;;;;2.17;0.65;;;;;;;;;;10262459;28;20312;-82
2023/05/03 10:50:12;;;;;;;0.90;0.50;;;;;;;;;;10260931;28;20221;-81
2023/05/03 10:55:17;;;;;;;0.47;0.47;;;;;;;;;;10258950;28;20217;-79
2023/05/03 11:00:24;;;;;;;2.22;0.65;;;;;;;;;;10261533;28;20222;-79
2023/05/03 11:05:27;;;;;;;0.60;0.60;;;;;;;;;;10258990;28;20781;-81
2023/05/03 11:10:28;;;;;;;5.70;0.60;;;;;;;;;;10276315;28;20218;-79
2023/05/03 11:15:30;;;;;;;1.63;0.75;;;;;;;;;;10253789;28;20229;-81
2023/05/03 11:20:30;;;;;;;2.00;0.70;;;;;;;;;;10259947;28;20819;-79
2023/05/03 11:25:32;;;;;;;2.75;0.60;;;;;;;;;;10274916;28;20308;-80
2023/05/03 11:30:34;;;;;;;1.85;0.70;;;;;;;;;;10264750;28;20704;-80
2023/05/03 11:35:35;;;;;;;2.00;0.60;;;;;;;;;;10262516;28;20293;-82
2023/05/03 11:40:38;;;;;;;1.40;0.63;;;;;;;;;;10265185;28;20303;-75
2023/05/03 11:45:40;;;;;;;12.52;0.75;;;;;;;;;;10266886;28;20214;-77
2023/05/03 11:50:54;;;;;;;1.33;0.52;;;;;;;;;;10245405;28;20707;-75
2023/05/03 11:55:55;;;;;;;5.75;0.70;;;;;;;;;;10248918;28;20225;-76
2023/05/03 12:00:57;;;;;;;1.35;0.57;;;;;;;;;;10245857;28;20308;-73
2023/05/03 12:05:58;;;;;;;2.75;0.52;;;;;;;;;;10248680;28;20217;-77
2023/05/03 12:11:00;;;;;;;0.95;0.40;;;;;;;;;;10245982;28;20299;-75
2023/05/03 12:16:03;;;;;;;0.60;0.60;;;;;;;;;;10265790;28;20312;-73
2023/05/03 12:21:04;;;;;;;0.85;0.50;;;;;;;;;;10248070;28;20222;-76
2023/05/03 12:26:05;;;;;;;1.33;0.65;;;;;;;;;;10237572;28;20279;-81
2023/05/03 12:31:06;;;;;;;1.35;0.50;;;;;;;;;;10244419;28;20308;-74
2023/05/03 12:36:08;;;;;;;6.78;0.65;;;;;;;;;;10250908;28;20225;-80
2023/05/03 12:41:10;;;;;;;6.63;0.63;;;;;;;;;;10266585;28;20222;-79
2023/05/03 12:46:11;;;;;;;1.38;0.70;;;;;;;;;;10251499;28;20228;-75
2023/05/03 12:51:13;;;;;;;0.85;0.30;;;;;;;;;;10256142;28;20221;-78
2023/05/03 12:56:14;;;;;;;2.28;0.52;;;;;;;;;;10235866;28;20337;-79
2023/05/03 13:01:16;;;;;;;2.70;0.77;;;;;;;;;;10247090;28;20579;-78
2023/05/03 13:06:18;;;;;;;3.05;0.70;;;;;;;;;;10250393;28;20232;-79
2023/05/03 13:11:19;;;;;;;0.63;0.50;;;;;;;;;;10253065;28;20225;-79
2023/05/03 13:16:20;;;;;;;1.75;0.60;;;;;;;;;;10270640;28;20234;-79
2023/05/03 13:21:21;;;;;;;1.48;0.63;;;;;;;;;;10252594;28;20225;-76
2023/05/03 13:26:22;;;;;;;2.53;0.47;;;;;;;;;;10251300;28;22366;-77
2023/05/03 13:31:26;;;;;;;0.60;0.60;;;;;;;;;;10249033;28;20233;-77
2023/05/03 13:36:28;;;;;;;1.63;0.50;;;;;;;;;;10249669;28;20233;-80
2023/05/03 13:41:29;;;;;;;1.42;0.52;;;;;;;;;;10246085;28;20218;-79
2023/05/03 13:46:30;;;;;;;3.53;0.50;;;;;;;;;;10236565;28;20303;-80
2023/05/03 13:51:31;;;;;;;5.10;0.65;;;;;;;;;;10245092;28;20220;-80
2023/05/03 13:56:32;;;;;;;1.10;0.50;;;;;;;;;;10262758;28;20221;-80
2023/05/03 14:01:34;;;;;;;2.47;0.40;;;;;;;;;;10230973;28;20441;-79
2023/05/03 14:06:35;;;;;;;0.52;0.52;;;;;;;;;;10244144;28;20230;-81
2023/05/03 14:11:36;;;;;;;0.70;0.45;;;;;;;;;;10245137;28;20664;-79
2023/05/03 14:16:37;;;;;;;1.90;0.70;;;;;;;;;;10246161;28;20313;-76
2023/05/03 14:21:40;;;;;;;1.60;0.57;;;;;;;;;;10249883;28;20213;-79
2023/05/03 14:26:41;;;;;;;1.23;0.50;;;;;;;;;;10260023;28;20284;-79
2023/05/03 14:31:42;;;;;;;0.65;0.52;;;;;;;;;;10251234;28;20662;-77
2023/05/03 14:36:43;;;;;;;1.35;0.55;;;;;;;;;;10245610;28;20284;-73
2023/05/03 14:41:46;;;;;;;0.60;0.50;;;;;;;;;;10263482;28;20225;-77
2023/05/03 14:46:47;;;;;;;2.15;0.40;;;;;;;;;;10252074;28;20218;-76
2023/05/03 14:51:48;;;;;;;2.42;0.60;;;;;;;;;;10243105;28;20217;-77
2023/05/03 14:56:49;;;;;;;0.98;0.40;;;;;;;;;;10254337;28;20221;-75
2023/05/03 15:01:53;;;;;;;2.80;0.70;;;;;;;;;;10264472;28;20225;-76
2023/05/03 15:06:56;;;;;;;1.80;0.98;;;;;;;;;;10244588;28;20712;-76
2023/05/03 15:11:57;;;;;;;1.83;0.60;;;;;;;;;;10246095;28;20218;-77
2023/05/03 15:16:58;;;;;;;1.27;0.65;;;;;;;;;;10251161;28;20622;-75
2023/05/03 15:21:59;;;;;;;2.13;0.90;;;;;;;;;;10253221;28;20229;-77
2023/05/03 15:27:03;;;;;;;2.35;0.98;;;;;;;;;;10246170;28;20229;-76
2023/05/03 15:32:05;;;;;;;8.68;0.75;;;;;;;;;;10243984;28;20761;-76
2023/05/03 15:37:06;;;;;;;2.20;0.80;;;;;;;;;;10247716;28;20233;-76
2023/05/03 15:42:07;;;;;;;3.42;1.00;;;;;;;;;;10254377;28;20224;-75
2023/05/03 15:47:08;;;;;;;2.50;0.88;;;;;;;;;;10250016;28;20549;-76
2023/05/03 15:52:16;;;;;;;1.20;0.80;;;;;;;;;;10447030;28;20977;-77
2023/05/03 15:57:17;;;;;;;4.53;0.68;;;;;;;;;;10483614;28;20215;-77
2023/05/03 16:02:18;;;;;;;1.90;0.68;;;;;;;;;;10473671;28;20217;-76
2023/05/03 16:07:19;;;;;;;1.52;0.47;;;;;;;;;;10473191;28;20214;-77
2023/05/03 16:12:20;;;;;;;2.33;0.50;;;;;;;;;;10479155;28;20304;-77
2023/05/03 16:17:21;;;;;;;3.30;0.50;;;;;;;;;;10474595;28;21025;-78
2023/05/03 16:22:23;;;;;;;1.92;0.52;;;;;;;;;;10478737;28;20243;-76
2023/05/03 16:27:24;;;;;;;0.50;0.50;;;;;;;;;;10476767;28;20738;-78
2023/05/03 16:32:25;;;;;;;1.15;0.60;;;;;;;;;;10472441;28;20218;-77
2023/05/03 16:37:26;;;;;;;3.15;0.50;;;;;;;;;;10477946;28;20210;-75
2023/05/03 16:42:27;;;;;;;2.17;0.50;;;;;;;;;;10472891;28;20206;-75
2023/05/03 16:47:28;;;;;;;3.15;0.40;;;;;;;;;;10453180;28;20303;-75
2023/05/03 16:52:30;;;;;;;2.05;0.35;;;;;;;;;;10470681;28;20221;-76
2023/05/03 16:57:31;;;;;;;4.13;0.60;;;;;;;;;;10480187;28;20851;-75
2023/05/03 17:02:32;;;;;;;0.85;0.40;;;;;;;;;;10449826;28;20268;-75
2023/05/03 17:07:34;;;;;;;1.98;0.50;;;;;;;;;;10439397;28;20219;-73
2023/05/03 17:12:35;;;;;;;1.58;0.38;;;;;;;;;;10448976;28;20314;-77
2023/05/03 17:17:36;;;;;;;1.08;0.60;;;;;;;;;;10436757;28;20317;-75
2023/05/03 17:22:38;;;;;;;0.77;0.40;;;;;;;;;;10433363;28;20222;-75
2023/05/03 17:27:39;;;;;;;0.65;0.40;;;;;;;;;;10430917;28;20226;-76
2023/05/03 17:32:40;;;;;;;1.60;0.80;;;;;;;;;;10423622;28;20206;-76
2023/05/03 17:37:41;;;;;;;0.52;0.47;;;;;;;;;;10436764;28;20221;-73
2023/05/03 17:42:42;;;;;;;0.40;0.40;;;;;;;;;;10434752;28;20222;-77
2023/05/03 17:47:43;;;;;;;4.75;0.50;;;;;;;;;;10432724;28;20755;-76
2023/05/03 17:52:44;;;;;;;1.85;0.50;;;;;;;;;;10435213;28;20236;-76
2023/05/03 17:57:45;;;;;;;2.00;0.45;;;;;;;;;;10410297;28;20265;-75
2023/05/03 18:02:46;;;;;;;0.52;0.40;;;;;;;;;;10427526;28;20218;-79
2023/05/03 18:07:47;;;;;;;1.20;0.35;;;;;;;;;;10427042;28;20233;-77
2023/05/03 18:12:48;;;;;;;0.40;0.40;;;;;;;;;;10426458;28;20968;-73
2023/05/03 18:17:49;;;;;;;1.65;0.70;;;;;;;;;;10432788;28;20252;-75
2023/05/03 18:22:50;;;;;;;1.90;0.43;;;;;;;;;;10418713;28;20222;-78
2023/05/03 18:27:51;;;;;;;0.30;0.30;;;;;;;;;;10409128;28;20226;-77
2023/05/03 18:32:53;;;;;;;0.65;0.40;;;;;;;;;;10433408;28;20229;-76
2023/05/03 18:37:54;;;;;;;1.63;0.40;;;;;;;;;;10426570;28;20269;-76
2023/05/03 18:42:55;;;;;;;5.15;0.40;;;;;;;;;;10417860;28;20219;-75
2023/05/03 18:47:56;;;;;;;1.60;0.57;;;;;;;;;;10432461;28;20214;-76
2023/05/03 18:52:57;;;;;;;2.72;0.57;;;;;;;;;;10432685;28;20229;-77
2023/05/03 18:57:59;;;;;;;1.08;0.60;;;;;;;;;;10430294;28;21614;-75
2023/05/03 19:03:00;;;;;;;0.47;0.47;;;;;;;;;;10432258;28;20214;-75
2023/05/03 19:08:01;;;;;;;3.28;0.75;;;;;;;;;;10413499;28;20214;-77
2023/05/03 19:13:02;;;;;;;1.27;0.50;;;;;;;;;;10423167;28;20279;-80
2023/05/03 19:18:03;;;;;;;2.97;0.82;;;;;;;;;;10422109;28;20215;-78
2023/05/03 19:23:05;;;;;;;0.70;0.70;;;;;;;;;;10423856;28;20252;-77
2023/05/03 19:28:06;;;;;;;1.80;0.50;;;;;;;;;;10422535;28;20218;-77
2023/05/03 19:33:07;;;;;;;0.88;0.60;;;;;;;;;;10424771;28;20292;-77
2023/05/03 19:38:08;;;;;;;2.45;0.75;;;;;;;;;;10424612;28;20309;-79
2023/05/03 19:43:09;;;;;;;0.65;0.65;;;;;;;;;;10421838;28;20598;-77
2023/05/03 19:48:11;;;;;;;0.90;0.70;;;;;;;;;;10431098;28;20227;-77
2023/05/03 19:53:12;;;;;;;0.90;0.80;;;;;;;;;;10434474;28;20228;-78
2023/05/03 19:58:13;;;;;;;1.20;0.57;;;;;;;;;;10427830;28;20209;-78
2023/05/03 20:03:14;;;;;;;0.90;0.77;;;;;;;;;;10427624;28;20344;-76
2023/05/03 20:08:15;;;;;;;1.65;0.80;;;;;;;;;;10433829;28;20214;-77
2023/05/03 20:13:16;;;;;;;1.38;1.17;;;;;;;;;;10438267;28;20252;-76
2023/05/03 20:18:17;;;;;;;0.77;0.77;;;;;;;;;;10443593;28;20226;-77
2023/05/03 20:23:18;;;;;;;1.73;0.90;;;;;;;;;;10426543;28;20287;-77
2023/05/03 20:28:19;;;;;;;0.70;0.70;;;;;;;;;;10441529;28;20368;-77
2023/05/03 20:33:20;;;;;;;1.25;0.90;;;;;;;;;;10441300;28;20265;-75
2023/05/03 20:38:21;;;;;;;0.60;0.60;;;;;;;;;;10446153;28;20588;-76
2023/05/03 20:43:22;;;;;;;0.60;0.60;;;;;;;;;;10440395;28;20230;-76
2023/05/03 20:48:24;;;;;;;2.15;0.68;;;;;;;;;;10432883;28;20662;-75
2023/05/03 20:53:25;;;;;;;0.60;0.60;;;;;;;;;;10438901;28;20632;-76
2023/05/03 20:58:26;;;;;;;6.25;0.90;;;;;;;;;;10448497;28;20268;-78
2023/05/03 21:03:27;;;;;;;4.38;0.68;;;;;;;;;;10449055;28;20219;-75
2023/05/03 21:08:28;;;;;;;0.80;0.80;;;;;;;;;;10446762;28;20213;-76
2023/05/03 21:13:29;;;;;;;0.70;0.70;;;;;;;;;;10446959;28;20292;-76
2023/05/03 21:18:30;;;;;;;0.70;0.70;;;;;;;;;;10448246;28;20209;-77
2023/05/03 21:23:31;;;;;;;2.95;0.60;;;;;;;;;;10438953;28;20725;-75
2023/05/03 21:28:32;;;;;;;1.80;0.85;;;;;;;;;;10445241;28;20232;-77
2023/05/03 21:33:33;;;;;;;0.60;0.60;;;;;;;;;;10428149;28;20693;-78
2023/05/03 21:38:34;;;;;;;3.83;0.65;;;;;;;;;;10448329;28;20271;-78
2023/05/03 21:43:35;;;;;;;2.20;0.80;;;;;;;;;;10421511;28;20636;-78
2023/05/03 21:48:36;;;;;;;1.40;0.80;;;;;;;;;;10438664;28;20216;-77
2023/05/03 21:53:38;;;;;;;1.17;0.77;;;;;;;;;;10427240;28;20302;-78
2023/05/03 21:58:39;;;;;;;2.90;0.75;;;;;;;;;;10444532;28;20218;-73
2023/05/03 22:03:40;;;;;;;0.65;0.65;;;;;;;;;;10410582;28;20587;-78
2023/05/03 22:08:41;;;;;;;3.38;0.80;;;;;;;;;;10428863;28;20222;-76
2023/05/03 22:13:42;;;;;;;0.60;0.60;;;;;;;;;;10426880;28;20226;-76
2023/05/03 22:18:43;;;;;;;0.57;0.57;;;;;;;;;;10445787;28;20229;-76
2023/05/03 22:23:44;;;;;;;1.33;0.80;;;;;;;;;;10441515;28;20730;-75
2023/05/03 22:28:45;;;;;;;0.45;0.45;;;;;;;;;;10447927;28;20350;-77
2023/05/03 22:33:47;;;;;;;3.10;0.80;;;;;;;;;;10444218;28;20219;-79
2023/05/03 22:38:48;;;;;;;3.95;0.80;;;;;;;;;;10439658;28;20669;-75
2023/05/03 22:43:49;;;;;;;3.60;1.08;;;;;;;;;;10443755;28;20250;-76
2023/05/03 22:48:50;;;;;;;3.80;0.70;;;;;;;;;;10439934;28;20214;-80
2023/05/03 22:53:52;;;;;;;0.98;0.98;;;;;;;;;;10442214;28;20206;-77
2023/05/03 22:58:53;;;;;;;3.45;0.60;;;;;;;;;;10431750;28;20560;-76
2023/05/03 23:03:54;;;;;;;1.02;0.60;;;;;;;;;;10441912;28;20218;-77
2023/05/03 23:08:55;;;;;;;0.88;0.88;;;;;;;;;;10438599;28;20326;-76
2023/05/03 23:13:56;;;;;;;1.75;0.82;;;;;;;;;;10445126;28;20215;-78
2023/05/03 23:18:57;;;;;;;2.25;0.73;;;;;;;;;;10442574;28;20216;-78
2023/05/03 23:23:59;;;;;;;3.47;0.77;;;;;;;;;;10441997;28;20237;-77
2023/05/03 23:29:00;;;;;;;1.95;0.80;;;;;;;;;;10444222;28;21011;-76
2023/05/03 23:34:03;;;;;;;0.70;0.70;;;;;;;;;;10444567;28;20309;-74
2023/05/03 23:39:04;;;;;;;0.60;0.60;;;;;;;;;;10443873;28;20217;-79
2023/05/03 23:44:06;;;;;;;3.25;0.90;;;;;;;;;;10439089;28;20214;-78
2023/05/03 23:49:07;;;;;;;4.53;0.95;;;;;;;;;;10444543;28;20223;-76
2023/05/03 23:54:08;;;;;;;3.05;0.80;;;;;;;;;;10443385;28;20233;-78
2023/05/03 23:59:09;;;;;;;3.85;0.95;;;;;;;;;;10441141;28;20268;-77
